TAIP21 YCBG-YCBG
Flight info
| Callsign | TAIP21 |
|---|---|
| Flight time | 0h 17m |
| Altitude | 2500 |
| Route | VFR |
| Aircraft | EC35/L-SDFGRY/C |
Departure
| Time | 2026-04-22 09:34 |
|---|---|
| Airport | Cambridge Aerodrome (YCBG) |
Arrival
| Time | 2026-04-22 09:51 |
|---|---|
| Airport | Cambridge Aerodrome (YCBG) |
| Time | Latitude | Longitude | Altitude | Speed | Heading |
|---|---|---|---|---|---|
| 2026-04-22 09:20 | -42.82913 | 147.47697 | 59 ft | 0 kts | 15° |
| 2026-04-22 09:31 | -42.82912 | 147.47699 | 59 ft | 1 kts | 9° |
| 2026-04-22 09:31 | -42.82895 | 147.47687 | 71 ft | 6 kts | 289° |
| 2026-04-22 09:32 | -42.82865 | 147.47580 | 130 ft | 19 kts | 287° |
| 2026-04-22 09:32 | -42.82799 | 147.47275 | 224 ft | 54 kts | 283° |
| 2026-04-22 09:32 | -42.82720 | 147.46580 | 340 ft | 90 kts | 269° |
| 2026-04-22 09:32 | -42.83019 | 147.45754 | 525 ft | 107 kts | 223° |
| 2026-04-22 09:33 | -42.83723 | 147.45406 | 605 ft | 111 kts | 172° |
| 2026-04-22 09:33 | -42.84427 | 147.45747 | 475 ft | 110 kts | 144° |
| 2026-04-22 09:33 | -42.85060 | 147.46362 | 515 ft | 113 kts | 137° |
| 2026-04-22 09:33 | -42.85739 | 147.46907 | 588 ft | 114 kts | 154° |
| 2026-04-22 09:34 | -42.86486 | 147.47322 | 603 ft | 117 kts | 155° |
| 2026-04-22 09:34 | -42.87241 | 147.47733 | 657 ft | 115 kts | 154° |
| 2026-04-22 09:34 | -42.87954 | 147.48169 | 750 ft | 113 kts | 151° |
| 2026-04-22 09:35 | -42.89407 | 147.48910 | 892 ft | 111 kts | 173° |
| 2026-04-22 09:35 | -42.90185 | 147.49025 | 938 ft | 114 kts | 173° |
| 2026-04-22 09:35 | -42.90999 | 147.49155 | 917 ft | 119 kts | 171° |
| 2026-04-22 09:35 | -42.91828 | 147.49330 | 909 ft | 121 kts | 168° |
| 2026-04-22 09:36 | -42.92664 | 147.49558 | 900 ft | 122 kts | 166° |
| 2026-04-22 09:36 | -42.93480 | 147.49828 | 888 ft | 122 kts | 163° |
| 2026-04-22 09:36 | -42.94299 | 147.50153 | 874 ft | 122 kts | 160° |
| 2026-04-22 09:36 | -42.95111 | 147.50528 | 861 ft | 122 kts | 157° |
| 2026-04-22 09:37 | -42.95903 | 147.50951 | 850 ft | 122 kts | 154° |
| 2026-04-22 09:37 | -42.96696 | 147.51428 | 841 ft | 123 kts | 152° |
| 2026-04-22 09:37 | -42.97453 | 147.51944 | 833 ft | 122 kts | 149° |
| 2026-04-22 09:37 | -42.98239 | 147.52387 | 806 ft | 121 kts | 175° |
| 2026-04-22 09:38 | -42.98924 | 147.51941 | 856 ft | 106 kts | 236° |
| 2026-04-22 09:38 | -42.99169 | 147.51047 | 951 ft | 99 kts | 251° |
| 2026-04-22 09:38 | -42.99399 | 147.50145 | 1000 ft | 103 kts | 250° |
| 2026-04-22 09:38 | -42.99665 | 147.49206 | 1009 ft | 107 kts | 248° |
| 2026-04-22 09:39 | -42.99963 | 147.48268 | 1011 ft | 109 kts | 245° |
| 2026-04-22 09:39 | -43.00296 | 147.47336 | 1007 ft | 110 kts | 243° |
| 2026-04-22 09:39 | -43.00668 | 147.46408 | 1011 ft | 111 kts | 240° |
| 2026-04-22 09:39 | -43.01071 | 147.45509 | 1007 ft | 112 kts | 237° |
| 2026-04-22 09:40 | -43.01515 | 147.44618 | 1002 ft | 112 kts | 234° |
| 2026-04-22 09:40 | -43.01984 | 147.43770 | 999 ft | 113 kts | 231° |
| 2026-04-22 09:40 | -43.02275 | 147.42828 | 1012 ft | 106 kts | 270° |
| 2026-04-22 09:40 | -43.02015 | 147.41907 | 1031 ft | 103 kts | 300° |
| 2026-04-22 09:41 | -43.01614 | 147.41090 | 1037 ft | 104 kts | 301° |
| 2026-04-22 09:41 | -43.01188 | 147.40282 | 1022 ft | 106 kts | 302° |
| 2026-04-22 09:41 | -43.00738 | 147.39473 | 1008 ft | 106 kts | 303° |
| 2026-04-22 09:41 | -43.00280 | 147.38686 | 988 ft | 105 kts | 304° |
| 2026-04-22 09:42 | -42.99809 | 147.37913 | 973 ft | 106 kts | 306° |
| 2026-04-22 09:42 | -42.99324 | 147.37154 | 958 ft | 106 kts | 307° |
| 2026-04-22 09:42 | -42.98825 | 147.36412 | 944 ft | 107 kts | 309° |
| 2026-04-22 09:42 | -42.98300 | 147.35669 | 931 ft | 108 kts | 311° |
| 2026-04-22 09:43 | -42.97667 | 147.35176 | 958 ft | 106 kts | 345° |
| 2026-04-22 09:43 | -42.96929 | 147.35300 | 984 ft | 106 kts | 6° |
| 2026-04-22 09:43 | -42.96210 | 147.35518 | 1002 ft | 107 kts | 4° |
| 2026-04-22 09:43 | -42.95467 | 147.35706 | 980 ft | 109 kts | 2° |
| 2026-04-22 09:44 | -42.94705 | 147.35855 | 958 ft | 110 kts | 0° |
| 2026-04-22 09:44 | -42.93949 | 147.35962 | 932 ft | 110 kts | 358° |
| 2026-04-22 09:44 | -42.93179 | 147.36024 | 912 ft | 109 kts | 356° |
| 2026-04-22 09:44 | -42.92422 | 147.36044 | 877 ft | 110 kts | 354° |
| 2026-04-22 09:45 | -42.91663 | 147.36018 | 832 ft | 109 kts | 351° |
| 2026-04-22 09:45 | -42.90921 | 147.35879 | 825 ft | 104 kts | 340° |
| 2026-04-22 09:45 | -42.90279 | 147.35510 | 887 ft | 98 kts | 327° |
| 2026-04-22 09:45 | -42.89684 | 147.35011 | 869 ft | 100 kts | 321° |
| 2026-04-22 09:46 | -42.89120 | 147.34457 | 876 ft | 99 kts | 318° |
| 2026-04-22 09:46 | -42.88602 | 147.33870 | 896 ft | 98 kts | 313° |
| 2026-04-22 09:46 | -42.88085 | 147.33264 | 899 ft | 98 kts | 333° |
| 2026-04-22 09:46 | -42.87472 | 147.33539 | 962 ft | 98 kts | 37° |
| 2026-04-22 09:47 | -42.87173 | 147.34383 | 1027 ft | 100 kts | 63° |
| 2026-04-22 09:47 | -42.86948 | 147.35307 | 1042 ft | 105 kts | 62° |
| 2026-04-22 09:47 | -42.86711 | 147.36269 | 1062 ft | 107 kts | 62° |
| 2026-04-22 09:47 | -42.86480 | 147.37221 | 1067 ft | 107 kts | 62° |
| 2026-04-22 09:48 | -42.86248 | 147.38193 | 1086 ft | 108 kts | 63° |
| 2026-04-22 09:48 | -42.86018 | 147.39168 | 1113 ft | 108 kts | 63° |
| 2026-04-22 09:48 | -42.85786 | 147.40161 | 1127 ft | 109 kts | 63° |
| 2026-04-22 09:48 | -42.85560 | 147.41142 | 1136 ft | 109 kts | 63° |
| 2026-04-22 09:49 | -42.85333 | 147.42136 | 1124 ft | 109 kts | 63° |
| 2026-04-22 09:49 | -42.85110 | 147.43120 | 1154 ft | 109 kts | 64° |
| 2026-04-22 09:49 | -42.84887 | 147.44119 | 1138 ft | 110 kts | 64° |
| 2026-04-22 09:49 | -42.84659 | 147.45140 | 1061 ft | 116 kts | 63° |
| 2026-04-22 09:50 | -42.84438 | 147.46220 | 906 ft | 121 kts | 64° |
| 2026-04-22 09:50 | -42.84195 | 147.47317 | 738 ft | 120 kts | 62° |
| 2026-04-22 09:50 | -42.83939 | 147.48387 | 534 ft | 119 kts | 59° |
| 2026-04-22 09:50 | -42.83473 | 147.49133 | 460 ft | 94 kts | 360° |
| 2026-04-22 09:51 | -42.83040 | 147.48677 | 215 ft | 86 kts | 282° |
| 2026-04-22 09:51 | -42.82898 | 147.48007 | 83 ft | 52 kts | 269° |
| 2026-04-22 09:51 | -42.82839 | 147.47743 | 62 ft | 16 kts | 265° |
| 2026-04-22 09:51 | -42.82805 | 147.47601 | 113 ft | 25 kts | 298° |
| 2026-04-22 09:52 | -42.82716 | 147.47110 | 355 ft | 81 kts | 282° |
| 2026-04-22 09:52 | -42.82755 | 147.46281 | 748 ft | 93 kts | 257° |
| 2026-04-22 09:52 | -42.83048 | 147.45529 | 1205 ft | 94 kts | 235° |
| 2026-04-22 09:52 | -42.83595 | 147.45046 | 1607 ft | 98 kts | 197° |
| 2026-04-22 09:53 | -42.84257 | 147.45291 | 1768 ft | 102 kts | 141° |
| 2026-04-22 09:53 | -42.84560 | 147.46153 | 1824 ft | 107 kts | 91° |
| 2026-04-22 09:53 | -42.84611 | 147.47198 | 1747 ft | 116 kts | 79° |
| 2026-04-22 09:53 | -42.84510 | 147.48329 | 1636 ft | 120 kts | 66° |
| 2026-04-22 09:54 | -42.84198 | 147.49327 | 1641 ft | 104 kts | 33° |
| 2026-04-22 09:54 | -42.83544 | 147.49468 | 1434 ft | 105 kts | 330° |
| 2026-04-22 09:54 | -42.82901 | 147.48930 | 1088 ft | 113 kts | 313° |
| 2026-04-22 09:54 | -42.82326 | 147.48192 | 806 ft | 112 kts | 311° |
| 2026-04-22 09:55 | -42.81797 | 147.47501 | 659 ft | 102 kts | 306° |
| 2026-04-22 09:55 | -42.81724 | 147.46750 | 556 ft | 86 kts | 200° |
| 2026-04-22 09:55 | -42.82132 | 147.47118 | 232 ft | 74 kts | 109° |
| 2026-04-22 09:55 | -42.82402 | 147.47565 | 67 ft | 46 kts | 133° |
| 2026-04-22 09:56 | -42.82525 | 147.47719 | 40 ft | 3 kts | 153° |
| 2026-04-22 09:56 | -42.82555 | 147.47728 | 44 ft | 4 kts | 225° |
| 2026-04-22 09:56 | -42.82588 | 147.47676 | 48 ft | 8 kts | 222° |
| 2026-04-22 09:56 | -42.82653 | 147.47652 | 51 ft | 13 kts | 148° |
| 2026-04-22 09:57 | -42.82738 | 147.47707 | 57 ft | 14 kts | 145° |
| 2026-04-22 09:57 | -42.82822 | 147.47761 | 60 ft | 14 kts | 152° |
| 2026-04-22 09:57 | -42.82899 | 147.47815 | 61 ft | 12 kts | 166° |
| 2026-04-22 09:57 | -42.82909 | 147.47765 | 61 ft | 6 kts | 279° |
| 2026-04-22 09:58 | -42.82881 | 147.47720 | 60 ft | 4 kts | 220° |
| 2026-04-22 09:58 | -42.82877 | 147.47713 | 58 ft | 0 kts | 205° |